createdAt,value
2018-09-22T00:02:02.442Z,1.95
2018-09-22T00:04:31.117Z,3.17
2018-09-22T00:06:59.853Z,1.90
2018-09-22T00:09:28.615Z,2.22
2018-09-22T00:11:57.398Z,1.92
2018-09-22T00:14:26.296Z,2.40
2018-09-22T00:16:54.898Z,1.60
2018-09-22T00:19:23.608Z,2.45
2018-09-22T00:21:52.211Z,2.12
2018-09-22T00:24:20.888Z,2.85
2018-09-22T00:26:49.524Z,1.70
2018-09-22T00:29:18.118Z,1.82
2018-09-22T00:31:46.743Z,1.80
2018-09-22T00:34:15.352Z,1.50
2018-09-22T00:36:43.943Z,1.75
2018-09-22T00:39:12.639Z,1.92
2018-09-22T00:41:41.233Z,1.87
2018-09-22T00:44:09.843Z,1.60
2018-09-22T00:46:38.600Z,2.20
2018-09-22T00:49:07.209Z,2.65
2018-09-22T00:51:35.821Z,1.70
2018-09-22T00:54:04.519Z,2.05
2018-09-22T00:56:33.105Z,2.00
2018-09-22T00:59:01.692Z,2.40
2018-09-22T01:01:30.665Z,1.75
2018-09-22T01:03:59.335Z,2.15
2018-09-22T01:06:28.074Z,2.50
2018-09-22T01:08:56.653Z,1.80
2018-09-22T01:11:25.227Z,2.30
2018-09-22T01:13:53.924Z,2.20
2018-09-22T01:16:22.600Z,3.00
2018-09-22T01:18:51.226Z,1.87
2018-09-22T01:21:19.863Z,2.55
2018-09-22T01:23:48.477Z,2.33
2018-09-22T01:26:17.122Z,2.33
2018-09-22T01:28:45.650Z,1.55
2018-09-22T01:31:14.246Z,2.60
2018-09-22T01:33:42.957Z,1.98
2018-09-22T01:36:11.684Z,2.50
2018-09-22T01:38:40.453Z,2.80
2018-09-22T01:41:09.128Z,1.87
2018-09-22T01:43:37.780Z,4.45
2018-09-22T01:46:06.388Z,1.55
2018-09-22T01:48:35.018Z,2.50
2018-09-22T01:51:03.660Z,2.47
2018-09-22T01:53:32.266Z,2.30
2018-09-22T01:56:00.869Z,2.72
2018-09-22T01:58:29.446Z,2.12
2018-09-22T02:00:58.041Z,1.75
2018-09-22T02:03:26.646Z,2.05
2018-09-22T02:05:55.194Z,3.33
2018-09-22T02:08:23.781Z,2.17
2018-09-22T02:10:52.429Z,2.87
2018-09-22T02:13:21.108Z,1.98
2018-09-22T02:15:49.666Z,1.45
2018-09-22T02:18:18.298Z,1.32
2018-09-22T02:20:46.944Z,2.62
2018-09-22T02:23:15.552Z,1.25
2018-09-22T02:25:44.158Z,1.65
2018-09-22T02:28:12.865Z,1.60
2018-09-22T02:30:41.553Z,2.25
2018-09-22T02:33:10.164Z,1.90
2018-09-22T02:35:38.868Z,1.87
2018-09-22T02:38:07.581Z,1.95
2018-09-22T02:40:36.386Z,1.65
2018-09-22T02:43:05.054Z,1.20
2018-09-22T02:45:33.761Z,2.47
2018-09-22T02:48:02.480Z,2.33
2018-09-22T02:50:31.079Z,2.00
2018-09-22T02:52:59.736Z,2.15
2018-09-22T02:55:28.412Z,1.80
2018-09-22T02:57:57.018Z,2.00
2018-09-22T03:00:26.817Z,3.12
2018-09-22T03:02:55.424Z,2.40
2018-09-22T03:05:24.088Z,2.85
2018-09-22T03:07:53.150Z,2.20
2018-09-22T03:10:21.859Z,2.15
2018-09-22T03:12:50.450Z,3.00
2018-09-22T03:15:19.192Z,2.65
2018-09-22T03:17:47.727Z,3.02
2018-09-22T03:20:16.372Z,3.00
2018-09-22T03:22:45.459Z,2.72
2018-09-22T03:25:14.093Z,2.27
2018-09-22T03:27:42.810Z,2.98
2018-09-22T03:30:11.457Z,3.15
2018-09-22T03:32:40.314Z,2.17
2018-09-22T03:35:08.973Z,2.83
2018-09-22T03:37:37.654Z,2.52
2018-09-22T03:40:06.308Z,2.90
2018-09-22T03:42:34.950Z,2.60
2018-09-22T03:45:03.640Z,3.33
2018-09-22T03:47:32.262Z,2.40
2018-09-22T03:50:00.893Z,2.60
2018-09-22T03:52:29.945Z,2.20
2018-09-22T03:54:58.819Z,3.12
2018-09-22T03:57:27.929Z,2.25
2018-09-22T04:00:03.271Z,2.95
2018-09-22T04:02:31.934Z,2.45
2018-09-22T04:05:00.527Z,3.42
2018-09-22T04:07:29.145Z,2.33
2018-09-22T04:09:57.729Z,2.92
2018-09-22T04:12:26.526Z,4.10
2018-09-22T04:14:55.264Z,2.77
2018-09-22T04:17:23.862Z,2.90
2018-09-22T04:19:52.544Z,3.42
2018-09-22T04:22:21.177Z,2.60
2018-09-22T04:24:49.815Z,2.95
2018-09-22T04:27:18.369Z,2.47
2018-09-22T04:29:47.031Z,2.22
2018-09-22T04:32:15.676Z,4.00
2018-09-22T04:34:46.308Z,2.87
2018-09-22T04:37:14.937Z,2.22
2018-09-22T04:39:43.681Z,2.87
2018-09-22T04:42:12.259Z,2.27
2018-09-22T04:44:40.965Z,2.70
2018-09-22T04:47:09.564Z,3.85
2018-09-22T04:49:38.230Z,2.70
2018-09-22T04:52:07.304Z,2.87
2018-09-22T04:54:35.838Z,2.55
2018-09-22T04:57:04.452Z,2.40
2018-09-22T04:59:33.114Z,2.60
2018-09-22T05:02:01.740Z,1.77
2018-09-22T05:04:30.374Z,4.28
2018-09-22T05:06:59.026Z,3.15
2018-09-22T05:09:27.722Z,2.52
2018-09-22T05:11:56.317Z,2.67
2018-09-22T05:14:24.954Z,3.10
2018-09-22T05:16:53.911Z,2.62
2018-09-22T05:19:22.533Z,2.40
2018-09-22T05:21:51.218Z,4.53
2018-09-22T05:24:19.969Z,2.75
2018-09-22T05:26:48.728Z,3.65
2018-09-22T05:29:17.395Z,2.87
2018-09-22T05:31:46.084Z,1.72
2018-09-22T05:34:14.742Z,3.47
2018-09-22T05:36:43.456Z,2.67
2018-09-22T05:39:12.487Z,2.37
2018-09-22T05:41:41.229Z,2.45
2018-09-22T05:44:09.962Z,2.50
2018-09-22T05:46:38.730Z,1.85
2018-09-22T05:49:07.343Z,2.72
2018-09-22T05:51:35.986Z,2.25
2018-09-22T05:54:04.793Z,3.30
2018-09-22T05:56:33.389Z,2.37
2018-09-22T05:59:01.982Z,2.52
2018-09-22T06:01:30.622Z,2.15
2018-09-22T06:03:59.392Z,2.30
2018-09-22T06:06:27.913Z,3.70
2018-09-22T06:08:56.581Z,3.30
2018-09-22T06:11:25.160Z,2.98
2018-09-22T06:13:53.855Z,2.55
2018-09-22T06:16:22.537Z,2.55
2018-09-22T06:18:51.420Z,2.72
2018-09-22T06:21:20.058Z,2.35
2018-09-22T06:23:48.796Z,1.85
2018-09-22T06:26:17.433Z,2.75
2018-09-22T06:28:46.109Z,2.15
2018-09-22T06:31:14.704Z,2.52
2018-09-22T06:33:43.546Z,2.22
2018-09-22T06:36:12.116Z,2.62
2018-09-22T06:38:40.828Z,2.67
2018-09-22T06:41:09.405Z,2.12
2018-09-22T06:43:38.051Z,2.20
2018-09-22T06:46:06.678Z,2.40
2018-09-22T06:48:35.250Z,2.08
2018-09-22T06:51:03.997Z,3.20
2018-09-22T06:53:32.832Z,2.83
2018-09-22T06:56:01.541Z,2.25
2018-09-22T06:58:30.128Z,2.60
2018-09-22T07:00:58.819Z,1.82
2018-09-22T07:03:27.483Z,2.25
2018-09-22T07:05:56.067Z,2.20
2018-09-22T07:08:24.731Z,2.85
2018-09-22T07:10:53.572Z,2.02
2018-09-22T07:13:22.360Z,2.60
2018-09-22T07:15:51.228Z,2.70
2018-09-22T07:18:19.879Z,2.17
2018-09-22T07:20:53.897Z,3.08
2018-09-22T07:23:22.604Z,3.02
2018-09-22T07:25:51.456Z,2.98
2018-09-22T07:28:20.145Z,3.55
2018-09-22T07:30:48.827Z,2.90
2018-09-22T07:33:17.546Z,4.03
2018-09-22T07:35:46.378Z,3.45
2018-09-22T07:38:15.098Z,2.55
2018-09-22T07:40:43.770Z,3.47
2018-09-22T07:43:12.504Z,2.52
2018-09-22T07:45:41.308Z,3.10
2018-09-22T07:48:09.971Z,2.80
2018-09-22T07:50:38.583Z,2.72
2018-09-22T07:53:07.403Z,2.60
2018-09-22T07:55:36.640Z,2.45
2018-09-22T07:58:05.378Z,2.60
2018-09-22T08:00:34.099Z,2.85
2018-09-22T08:03:02.803Z,2.50
2018-09-22T08:05:31.445Z,2.92
2018-09-22T08:08:00.067Z,2.52
2018-09-22T08:10:28.758Z,2.60
2018-09-22T08:12:57.541Z,2.80
2018-09-22T08:15:26.310Z,2.60
2018-09-22T08:17:54.994Z,3.00
2018-09-22T08:20:23.632Z,2.90
2018-09-22T08:22:52.417Z,3.30
2018-09-22T08:25:21.066Z,2.93
2018-09-22T08:27:49.639Z,3.45
2018-09-22T08:30:18.492Z,2.83
2018-09-22T08:32:47.231Z,3.33
2018-09-22T08:35:15.958Z,3.37
2018-09-22T08:37:44.535Z,3.83
2018-09-22T08:40:13.323Z,2.60
2018-09-22T08:42:41.910Z,2.70
2018-09-22T08:45:10.673Z,3.20
2018-09-22T08:47:39.471Z,4.23
2018-09-22T08:50:08.556Z,2.80
2018-09-22T08:52:37.172Z,3.70
2018-09-22T08:55:06.199Z,3.58
2018-09-22T08:57:34.849Z,2.57
2018-09-22T09:00:04.239Z,2.70
2018-09-22T09:02:32.981Z,2.87
2018-09-22T09:05:01.694Z,3.30
2018-09-22T09:07:30.399Z,2.30
2018-09-22T09:09:59.025Z,3.80
2018-09-22T09:12:27.644Z,3.50
2018-09-22T09:14:56.436Z,2.60
2018-09-22T09:17:25.099Z,2.67
2018-09-22T09:19:53.815Z,3.80
2018-09-22T09:22:22.444Z,2.97
2018-09-22T09:24:51.134Z,2.50
2018-09-22T09:27:19.769Z,3.20
2018-09-22T09:29:48.426Z,2.60
2018-09-22T09:32:17.772Z,3.50
2018-09-22T09:34:47.229Z,2.80
2018-09-22T09:37:16.015Z,3.33
2018-09-22T09:39:44.604Z,3.20
2018-09-22T09:42:13.279Z,2.90
2018-09-22T09:44:41.831Z,2.67
2018-09-22T09:47:10.606Z,3.70
2018-09-22T09:49:39.276Z,2.80
2018-09-22T09:52:08.152Z,2.30
2018-09-22T09:54:37.169Z,2.10
2018-09-22T09:57:05.846Z,3.03
2018-09-22T09:59:34.492Z,2.50
2018-09-22T10:02:03.086Z,3.20
2018-09-22T10:04:31.840Z,3.47
2018-09-22T10:07:00.565Z,2.97
2018-09-22T10:09:30.278Z,2.77
2018-09-22T10:11:59.133Z,2.53
2018-09-22T10:14:27.726Z,2.80
2018-09-22T10:16:56.382Z,2.40
2018-09-22T10:19:25.036Z,2.50
2018-09-22T10:21:53.699Z,3.10
2018-09-22T10:24:22.293Z,2.30
2018-09-22T10:26:50.945Z,1.70
2018-09-22T10:29:19.582Z,2.30
2018-09-22T10:31:48.216Z,1.83
2018-09-22T10:34:17.051Z,2.20
2018-09-22T10:36:45.787Z,2.30
2018-09-22T10:39:14.495Z,2.63
2018-09-22T10:41:43.122Z,1.93
2018-09-22T10:44:11.838Z,2.30
2018-09-22T10:46:40.598Z,2.00
2018-09-22T10:49:09.222Z,2.00
2018-09-22T10:51:37.909Z,1.90
2018-09-22T10:54:06.645Z,2.13
2018-09-22T10:56:35.314Z,2.40
2018-09-22T10:59:03.954Z,2.23
2018-09-22T11:01:32.513Z,1.67
2018-09-22T11:04:01.269Z,1.70
2018-09-22T11:06:29.909Z,2.00
2018-09-22T11:08:58.506Z,2.03
2018-09-22T11:11:27.271Z,1.57
2018-09-22T11:13:55.920Z,1.83
2018-09-22T11:16:24.574Z,1.50
2018-09-22T11:18:53.332Z,1.43
2018-09-22T11:21:21.995Z,1.70
2018-09-22T11:23:50.845Z,1.67
2018-09-22T11:26:19.498Z,1.73
2018-09-22T11:28:48.128Z,2.33
2018-09-22T11:31:16.905Z,1.60
2018-09-22T11:33:45.574Z,1.87
2018-09-22T11:36:14.516Z,1.40
2018-09-22T11:38:43.105Z,1.23
2018-09-22T11:41:11.746Z,2.13
2018-09-22T11:43:40.372Z,1.70
2018-09-22T11:46:09.054Z,2.07
2018-09-22T11:48:37.790Z,1.70
2018-09-22T11:51:06.440Z,1.70
2018-09-22T11:53:35.054Z,1.70
2018-09-22T11:56:03.775Z,1.67
2018-09-22T11:58:32.376Z,2.57
2018-09-22T12:01:01.268Z,1.50
2018-09-22T12:03:29.818Z,2.07
2018-09-22T12:05:58.562Z,2.07
2018-09-22T12:08:27.240Z,2.37
2018-09-22T12:10:56.047Z,1.30
2018-09-22T12:13:24.759Z,1.97
2018-09-22T12:15:53.388Z,1.63
2018-09-22T12:18:22.073Z,1.00
2018-09-22T12:20:50.745Z,1.20
2018-09-22T12:23:19.366Z,1.67
2018-09-22T12:25:48.040Z,1.87
2018-09-22T12:28:16.835Z,1.77
2018-09-22T12:30:45.453Z,1.90
2018-09-22T12:33:14.040Z,1.50
2018-09-22T12:35:42.572Z,1.37
2018-09-22T12:38:11.515Z,1.40
2018-09-22T12:40:40.591Z,1.77
2018-09-22T12:43:09.254Z,1.77
2018-09-22T12:45:37.912Z,1.77
2018-09-22T12:48:06.613Z,1.87
2018-09-22T12:50:35.232Z,1.63
2018-09-22T12:53:03.861Z,2.40
2018-09-22T12:55:32.575Z,1.30
2018-09-22T12:58:01.257Z,1.83
2018-09-22T13:00:29.918Z,1.83
2018-09-22T13:02:58.592Z,1.73
2018-09-22T13:05:27.396Z,2.00
2018-09-22T13:07:55.971Z,1.50
2018-09-22T13:10:24.711Z,2.27
2018-09-22T13:12:53.322Z,1.90
2018-09-22T13:15:22.062Z,1.60
2018-09-22T13:17:50.817Z,2.17
2018-09-22T13:20:19.464Z,2.10
2018-09-22T13:22:48.031Z,1.30
2018-09-22T13:25:16.649Z,1.33
2018-09-22T13:27:45.369Z,1.87
2018-09-22T13:30:14.078Z,1.67
2018-09-22T13:32:42.642Z,1.40
2018-09-22T13:35:11.266Z,1.90
2018-09-22T13:37:39.957Z,1.77
2018-09-22T13:40:08.610Z,1.87
2018-09-22T13:42:37.410Z,1.60
2018-09-22T13:45:06.394Z,1.70
2018-09-22T13:47:35.383Z,1.70
2018-09-22T13:50:05.062Z,1.80
2018-09-22T13:52:34.139Z,2.10
2018-09-22T13:55:02.831Z,1.63
2018-09-22T13:57:31.787Z,1.83
2018-09-22T14:00:00.436Z,1.80
2018-09-22T14:02:29.124Z,1.40
2018-09-22T14:04:57.763Z,3.00
2018-09-22T14:07:26.620Z,1.60
2018-09-22T14:09:55.232Z,3.13
2018-09-22T14:12:23.781Z,1.90
2018-09-22T14:14:52.368Z,2.13
2018-09-22T14:17:20.933Z,1.83
2018-09-22T14:19:49.535Z,1.40
2018-09-22T14:22:18.153Z,1.50
2018-09-22T14:24:46.794Z,2.43
2018-09-22T14:27:15.443Z,2.23
2018-09-22T14:29:44.056Z,1.60
2018-09-22T14:32:12.565Z,2.30
2018-09-22T14:34:41.188Z,2.13
2018-09-22T14:37:09.971Z,1.73
2018-09-22T14:39:38.495Z,2.20
2018-09-22T14:42:07.326Z,1.80
2018-09-22T14:44:35.948Z,2.23
2018-09-22T14:47:04.564Z,2.20
2018-09-22T14:49:33.174Z,2.37
2018-09-22T14:52:01.855Z,2.07
2018-09-22T14:54:30.620Z,1.97
2018-09-22T14:56:59.560Z,1.97
2018-09-22T14:59:28.429Z,1.43
2018-09-22T15:01:57.104Z,1.90
2018-09-22T15:04:25.712Z,1.40
2018-09-22T15:06:54.322Z,0.90
2018-09-22T15:09:23.109Z,1.32
2018-09-22T15:11:51.753Z,0.88
2018-09-22T15:14:20.320Z,1.32
2018-09-22T15:16:48.929Z,1.30
2018-09-22T15:19:17.508Z,1.70
2018-09-22T15:21:46.530Z,1.12
2018-09-22T15:24:15.229Z,1.32
2018-09-22T15:26:43.834Z,1.72
2018-09-22T15:29:12.553Z,1.47
2018-09-22T15:31:41.436Z,1.57
2018-09-22T15:34:10.684Z,1.52
2018-09-22T15:36:39.507Z,1.00
2018-09-22T15:39:08.879Z,1.75
2018-09-22T15:41:37.612Z,1.95
2018-09-22T15:44:06.257Z,1.95
2018-09-22T15:46:34.884Z,1.60
2018-09-22T15:49:03.585Z,1.30
2018-09-22T15:51:32.150Z,1.15
2018-09-22T15:54:00.914Z,2.30
2018-09-22T15:56:29.499Z,2.25
2018-09-22T15:58:58.260Z,2.45
2018-09-22T16:01:26.974Z,1.70
2018-09-22T16:03:55.551Z,3.33
2018-09-22T16:06:24.115Z,1.80
2018-09-22T16:08:52.797Z,1.55
2018-09-22T16:11:21.393Z,2.10
2018-09-22T16:13:51.435Z,2.55
2018-09-22T16:16:20.138Z,2.45
2018-09-22T16:18:48.825Z,2.27
2018-09-22T16:21:17.451Z,2.02
2018-09-22T16:23:46.202Z,2.22
2018-09-22T16:26:14.951Z,3.05
2018-09-22T16:28:43.597Z,1.87
2018-09-22T16:31:12.361Z,2.45
2018-09-22T16:33:40.953Z,3.00
2018-09-22T16:36:09.564Z,3.05
2018-09-22T16:38:38.224Z,2.22
2018-09-22T16:41:06.837Z,2.37
2018-09-22T16:43:35.411Z,2.60
2018-09-22T16:46:04.097Z,2.40
2018-09-22T16:48:32.884Z,2.60
2018-09-22T16:51:01.623Z,4.03
2018-09-22T16:53:30.285Z,3.00
2018-09-22T16:55:58.921Z,3.25
2018-09-22T16:58:27.613Z,3.10
2018-09-22T17:00:56.217Z,2.70
2018-09-22T17:03:24.921Z,2.25
2018-09-22T17:05:53.584Z,3.42
2018-09-22T17:08:22.196Z,3.25
2018-09-22T17:10:51.415Z,3.80
2018-09-22T17:13:20.063Z,4.58
2018-09-22T17:15:48.802Z,3.22
2018-09-22T17:18:17.704Z,3.08
2018-09-22T17:20:46.580Z,3.92
2018-09-22T17:23:15.294Z,3.95
2018-09-22T17:25:43.887Z,3.25
2018-09-22T17:28:15.678Z,3.35
2018-09-22T17:30:44.560Z,3.42
2018-09-22T17:33:14.412Z,3.65
2018-09-22T17:35:43.128Z,3.08
2018-09-22T17:38:12.246Z,3.58
2018-09-22T17:40:41.273Z,4.15
2018-09-22T17:43:09.969Z,5.17
2018-09-22T17:45:38.637Z,5.50
2018-09-22T17:48:07.255Z,4.25
2018-09-22T17:50:36.023Z,3.70
2018-09-22T17:53:04.766Z,3.67
2018-09-22T17:55:33.472Z,4.90
2018-09-22T17:58:02.128Z,4.78
2018-09-22T18:00:30.776Z,4.35
2018-09-22T18:02:59.371Z,4.37
2018-09-22T18:05:27.978Z,5.12
2018-09-22T18:07:56.609Z,4.45
2018-09-22T18:10:25.264Z,5.25
2018-09-22T18:12:53.893Z,5.50
2018-09-22T18:15:22.558Z,3.95
2018-09-22T18:17:51.317Z,4.90
2018-09-22T18:20:20.023Z,5.60
2018-09-22T18:22:48.627Z,4.37
2018-09-22T18:25:17.478Z,5.05
2018-09-22T18:27:46.189Z,4.67
2018-09-22T18:30:14.801Z,5.12
2018-09-22T18:32:43.506Z,6.10
2018-09-22T18:35:12.086Z,5.65
2018-09-22T18:37:40.657Z,5.15
2018-09-22T18:40:09.360Z,5.10
2018-09-22T18:42:37.984Z,5.67
2018-09-22T18:45:06.753Z,5.65
2018-09-22T18:47:35.334Z,5.40
2018-09-22T18:50:04.289Z,4.70
2018-09-22T18:52:32.985Z,4.80
2018-09-22T18:55:02.692Z,5.20
2018-09-22T18:57:31.366Z,5.50
2018-09-22T19:00:00.002Z,5.40
2018-09-22T19:02:28.639Z,4.80
2018-09-22T19:04:57.301Z,5.50
2018-09-22T19:07:25.911Z,5.30
2018-09-22T19:09:54.584Z,6.50
2018-09-22T19:12:23.359Z,5.00
2018-09-22T19:15:54.670Z,6.87
2018-09-22T19:18:34.732Z,6.33
2018-09-22T19:21:44.312Z,8.10
2018-09-22T19:25:16.841Z,6.50
2018-09-22T19:28:19.867Z,5.90
2018-09-22T19:30:51.706Z,5.75
2018-09-22T19:33:54.776Z,7.03
2018-09-22T19:36:30.113Z,5.83
2018-09-22T19:39:02.630Z,6.90
2018-09-22T19:41:35.184Z,6.08
2018-09-22T19:44:11.214Z,6.15
2018-09-22T19:46:46.450Z,7.05
2018-09-22T19:49:20.844Z,6.78
2018-09-22T19:51:52.927Z,6.87
2018-09-22T19:54:21.598Z,6.85
2018-09-22T19:56:50.311Z,6.67
2018-09-22T19:59:18.914Z,7.00
2018-09-22T20:01:47.524Z,7.33
2018-09-22T20:04:16.132Z,6.87
2018-09-22T20:06:44.780Z,8.08
2018-09-22T20:09:13.410Z,6.95
2018-09-22T20:11:42.214Z,7.10
2018-09-22T20:14:10.945Z,8.50
2018-09-22T20:16:39.548Z,6.03
2018-09-22T20:19:08.240Z,6.90
2018-09-22T20:21:36.919Z,7.25
2018-09-22T20:24:05.629Z,6.20
2018-09-22T20:26:34.305Z,7.28
2018-09-22T20:29:03.132Z,7.17
2018-09-22T20:31:31.952Z,7.70
2018-09-22T20:34:00.530Z,8.80
2018-09-22T20:36:29.416Z,8.78
2018-09-22T20:38:57.878Z,7.15
2018-09-22T20:41:26.792Z,8.08
2018-09-22T20:43:55.455Z,8.55
2018-09-22T20:46:24.207Z,8.65
2018-09-22T20:48:52.794Z,8.00
2018-09-22T20:51:21.392Z,10.43
2018-09-22T20:53:50.128Z,8.35
2018-09-22T20:56:18.609Z,10.10
2018-09-22T20:58:47.265Z,9.28
2018-09-22T21:01:15.980Z,8.43
2018-09-22T21:03:44.684Z,9.98
2018-09-22T21:06:13.361Z,9.53
2018-09-22T21:08:42.048Z,9.60
2018-09-22T21:11:10.704Z,9.55
2018-09-22T21:13:39.307Z,9.05
2018-09-22T21:16:08.006Z,9.78
2018-09-22T21:18:36.755Z,8.35
2018-09-22T21:21:05.542Z,9.65
2018-09-22T21:23:34.155Z,10.95
2018-09-22T21:26:02.721Z,8.50
2018-09-22T21:28:31.442Z,8.58
2018-09-22T21:31:00.042Z,10.45
2018-09-22T21:33:28.696Z,8.95
2018-09-22T21:35:57.278Z,8.35
2018-09-22T21:38:25.869Z,8.60
2018-09-22T21:40:54.548Z,9.93
2018-09-22T21:43:23.202Z,9.03
2018-09-22T21:45:51.765Z,9.35
2018-09-22T21:48:20.461Z,8.93
2018-09-22T21:50:49.099Z,9.48
2018-09-22T21:53:17.694Z,9.30
2018-09-22T21:55:46.338Z,10.30
2018-09-22T21:58:15.043Z,10.03
2018-09-22T22:00:47.771Z,10.50
2018-09-22T22:03:16.409Z,10.45
2018-09-22T22:05:44.989Z,11.95
2018-09-22T22:08:13.854Z,11.65
2018-09-22T22:10:42.646Z,11.55
2018-09-22T22:13:11.513Z,12.13
2018-09-22T22:15:40.747Z,10.58
2018-09-22T22:18:09.383Z,10.35
2018-09-22T22:20:38.743Z,10.75
2018-09-22T22:23:08.573Z,12.63
2018-09-22T22:25:37.159Z,12.03
2018-09-22T22:28:06.102Z,11.88
2018-09-22T22:30:34.777Z,12.47
2018-09-22T22:33:03.405Z,12.73
2018-09-22T22:35:32.066Z,13.28
2018-09-22T22:38:00.691Z,14.40
2018-09-22T22:40:29.340Z,14.70
2018-09-22T22:42:58.122Z,15.10
2018-09-22T22:45:26.955Z,17.48
2018-09-22T22:47:55.620Z,16.50
2018-09-22T22:50:24.365Z,14.68
2018-09-22T22:52:52.958Z,17.55
2018-09-22T22:55:21.550Z,17.60
2018-09-22T22:57:50.135Z,17.32
2018-09-22T23:00:18.844Z,19.75
2018-09-22T23:02:47.429Z,19.55
2018-09-22T23:05:16.085Z,18.62
2018-09-22T23:07:44.728Z,20.68
2018-09-22T23:10:13.299Z,19.07
2018-09-22T23:12:41.935Z,18.90
2018-09-22T23:15:10.573Z,20.60
2018-09-22T23:17:39.193Z,22.15
2018-09-22T23:20:07.796Z,20.45
2018-09-22T23:22:36.406Z,22.20
2018-09-22T23:25:05.113Z,22.60
2018-09-22T23:27:33.694Z,21.65
2018-09-22T23:30:02.391Z,21.62
2018-09-22T23:32:31.036Z,22.45
2018-09-22T23:34:59.633Z,22.42
2018-09-22T23:37:28.351Z,23.10
2018-09-22T23:39:56.969Z,22.32
2018-09-22T23:42:25.587Z,22.70
2018-09-22T23:44:54.406Z,21.68
2018-09-22T23:47:23.052Z,20.25
2018-09-22T23:49:51.661Z,21.62
2018-09-22T23:52:20.281Z,21.12
2018-09-22T23:54:48.854Z,21.50
2018-09-22T23:57:17.495Z,22.45
2018-09-22T23:59:46.179Z,21.23
